createdAt,value
2022-12-19T00:00:58.060Z,5.22
2022-12-19T00:06:14.596Z,2.30
2022-12-19T00:08:44.511Z,6.82
2022-12-19T00:11:23.052Z,4.95
2022-12-19T00:13:51.269Z,5.10
2022-12-19T00:16:28.098Z,8.30
2022-12-19T00:18:58.807Z,4.50
2022-12-19T00:21:34.804Z,5.07
2022-12-19T00:24:20.692Z,6.10
2022-12-19T00:26:50.337Z,5.93
2022-12-19T00:29:18.093Z,6.28
2022-12-19T00:31:46.064Z,3.67
2022-12-19T00:34:15.803Z,2.67
2022-12-19T00:36:46.783Z,2.17
2022-12-19T00:39:17.726Z,5.78
2022-12-19T00:41:49.736Z,4.90
2022-12-19T00:44:23.872Z,2.88
2022-12-19T00:46:54.305Z,4.43
2022-12-19T00:49:27.410Z,3.67
2022-12-19T00:52:03.257Z,4.38
2022-12-19T00:54:40.868Z,4.97
2022-12-19T00:57:09.543Z,3.35
2022-12-19T00:59:37.586Z,3.88
2022-12-19T01:02:08.432Z,5.75
2022-12-19T01:04:45.505Z,8.40
2022-12-19T01:07:15.336Z,4.20
2022-12-19T01:09:46.122Z,2.90
2022-12-19T01:21:10.729Z,5.50
2022-12-19T01:23:38.831Z,8.27
2022-12-19T01:26:15.277Z,3.72
2022-12-19T01:28:43.000Z,8.95
2022-12-19T01:31:10.851Z,7.82
2022-12-19T01:33:40.630Z,7.90
2022-12-19T01:36:17.798Z,8.93
2022-12-19T01:38:45.530Z,4.00
2022-12-19T01:41:16.244Z,6.57
2022-12-19T01:44:00.960Z,8.02
2022-12-19T01:46:39.381Z,7.22
2022-12-19T01:49:14.153Z,6.40
2022-12-19T01:51:45.761Z,6.22
2022-12-19T01:54:22.146Z,9.68
2022-12-19T01:56:52.925Z,6.38
2022-12-19T01:59:28.898Z,2.97
2022-12-19T02:02:21.068Z,5.15
2022-12-19T02:04:48.806Z,12.38
2022-12-19T02:07:18.634Z,10.50
2022-12-19T02:09:50.582Z,12.83
2022-12-19T02:12:31.254Z,6.25
2022-12-19T02:15:03.133Z,7.38
2022-12-19T02:17:42.568Z,9.82
2022-12-19T02:20:41.710Z,12.70
2022-12-19T02:23:10.421Z,9.18
2022-12-19T02:25:49.728Z,12.00
2022-12-19T02:28:43.676Z,5.35
2022-12-19T02:31:16.768Z,13.43
2022-12-19T02:34:25.646Z,10.15
2022-12-19T02:37:05.597Z,15.80
2022-12-19T02:39:39.048Z,12.60
2022-12-19T02:42:11.164Z,13.98
2022-12-19T02:44:47.746Z,12.35
2022-12-19T02:47:19.655Z,17.13
2022-12-19T02:49:48.237Z,10.70
2022-12-19T02:52:20.401Z,15.50
2022-12-19T02:54:56.001Z,15.73
2022-12-19T02:57:39.356Z,9.63
2022-12-19T03:00:16.185Z,8.40
2022-12-19T03:03:00.722Z,8.10
2022-12-19T03:05:39.611Z,11.93
2022-12-19T03:08:14.830Z,12.48
2022-12-19T03:10:49.143Z,11.25
2022-12-19T03:13:25.884Z,9.85
2022-12-19T03:15:54.186Z,8.88
2022-12-19T03:18:22.055Z,14.32
2022-12-19T03:20:52.728Z,13.43
2022-12-19T03:25:54.317Z,17.70
2022-12-19T03:28:36.702Z,16.33
2022-12-19T03:31:05.735Z,18.15
2022-12-19T03:33:45.577Z,12.82
2022-12-19T03:36:19.938Z,11.05
2022-12-19T03:38:50.274Z,10.27
2022-12-19T03:41:43.010Z,16.98
2022-12-19T03:44:16.488Z,13.65
2022-12-19T03:46:49.770Z,21.10
2022-12-19T03:49:17.539Z,15.40
2022-12-19T03:52:11.431Z,16.10
2022-12-19T03:54:42.288Z,12.20
2022-12-19T03:57:28.982Z,16.15
2022-12-19T04:00:13.838Z,16.55
2022-12-19T04:02:49.991Z,15.10
2022-12-19T04:05:34.559Z,8.55
2022-12-19T04:08:08.776Z,15.23
2022-12-19T04:10:54.167Z,21.42
2022-12-19T04:13:59.077Z,18.02
2022-12-19T04:17:04.859Z,10.40
2022-12-19T04:20:02.227Z,7.10
2022-12-19T04:22:44.333Z,11.82
2022-12-19T04:25:39.869Z,14.85
2022-12-19T04:28:39.262Z,12.02
2022-12-19T04:31:13.850Z,10.52
2022-12-19T04:33:48.507Z,16.27
2022-12-19T04:36:23.129Z,17.75
2022-12-19T04:39:01.721Z,14.57
2022-12-19T04:41:30.285Z,18.70
2022-12-19T04:43:58.370Z,17.38
2022-12-19T04:46:44.450Z,12.18
2022-12-19T04:49:12.675Z,14.63
2022-12-19T04:51:44.188Z,10.07
2022-12-19T04:54:42.425Z,11.70
2022-12-19T04:57:31.707Z,12.85
2022-12-19T05:00:25.049Z,15.80
2022-12-19T05:12:58.104Z,8.82
2022-12-19T05:16:00.663Z,9.30
2022-12-19T05:19:01.294Z,6.85
2022-12-19T05:21:52.963Z,8.15
2022-12-19T05:24:43.259Z,7.68
2022-12-19T05:27:26.138Z,4.88
2022-12-19T05:30:38.471Z,6.45
2022-12-19T05:33:33.750Z,9.85
2022-12-19T05:36:24.518Z,6.65
2022-12-19T05:39:16.515Z,5.82
2022-12-19T05:42:43.388Z,6.93
2022-12-19T05:45:51.101Z,7.72
2022-12-19T05:48:48.136Z,8.55
2022-12-19T05:51:21.070Z,4.00
2022-12-19T05:54:18.524Z,8.32
2022-12-19T05:56:50.514Z,7.78
2022-12-19T05:59:30.782Z,11.20
2022-12-19T06:02:15.442Z,9.27
2022-12-19T06:04:49.185Z,9.73
2022-12-19T06:07:23.452Z,5.35
2022-12-19T06:09:57.919Z,9.70
2022-12-19T06:12:40.161Z,7.63
2022-12-19T06:15:26.256Z,4.82
2022-12-19T06:18:42.892Z,5.28
2022-12-19T06:21:29.120Z,3.53
2022-12-19T06:24:10.279Z,11.68
2022-12-19T06:26:49.074Z,8.73
2022-12-19T06:32:13.704Z,6.55
2022-12-19T06:41:32.729Z,16.42
2022-12-19T06:47:20.643Z,12.32
2022-12-19T06:50:57.451Z,21.63
2022-12-19T07:06:11.072Z,11.70
2022-12-19T07:31:57.721Z,7.50
2022-12-19T07:34:33.671Z,6.65
2022-12-19T07:37:28.288Z,7.60
2022-12-19T07:44:47.861Z,7.43
2022-12-19T07:51:14.424Z,11.07
2022-12-19T07:54:59.026Z,3.67
2022-12-19T07:58:17.702Z,9.48
2022-12-19T08:05:44.372Z,6.72
2022-12-19T08:08:34.136Z,5.82
2022-12-19T08:14:32.379Z,7.38
2022-12-19T08:47:53.598Z,10.48
2022-12-19T08:50:40.949Z,5.55
2022-12-19T08:53:21.424Z,15.53
2022-12-19T08:56:11.980Z,12.73
2022-12-19T08:58:54.885Z,9.98
2022-12-19T09:01:25.970Z,13.20
2022-12-19T09:05:57.342Z,13.48
2022-12-19T09:07:15.261Z,15.55
2022-12-19T09:09:48.648Z,10.77
2022-12-19T09:12:28.308Z,15.75
2022-12-19T09:14:59.601Z,8.83
2022-12-19T09:18:00.584Z,14.63
2022-12-19T09:20:49.828Z,12.05
2022-12-19T09:23:21.651Z,9.48
2022-12-19T09:26:32.965Z,11.25
2022-12-19T09:29:12.696Z,12.70
2022-12-19T09:31:57.171Z,6.47
2022-12-19T09:34:37.871Z,11.57
2022-12-19T09:37:09.175Z,10.90
2022-12-19T09:39:50.810Z,7.55
2022-12-19T09:46:24.947Z,11.13
2022-12-19T09:47:21.264Z,7.55
2022-12-19T09:49:54.203Z,16.50
2022-12-19T09:52:36.600Z,8.57
2022-12-19T09:55:33.826Z,5.07
2022-12-19T09:58:28.878Z,3.85
2022-12-19T10:01:29.660Z,8.27
2022-12-19T10:04:21.789Z,5.72
2022-12-19T10:07:40.109Z,6.80
2022-12-19T10:15:32.668Z,8.05
2022-12-19T10:18:18.257Z,11.52
2022-12-19T10:21:19.466Z,10.32
2022-12-19T10:24:26.701Z,12.25
2022-12-19T10:27:04.507Z,11.43
2022-12-19T10:30:05.570Z,9.55
2022-12-19T10:33:20.739Z,11.55
2022-12-19T10:36:11.192Z,12.57
2022-12-19T10:39:34.487Z,17.45
2022-12-19T10:42:19.537Z,13.35
2022-12-19T10:44:52.795Z,12.93
2022-12-19T10:47:25.398Z,12.98
2022-12-19T10:49:56.779Z,15.10
2022-12-19T10:52:56.967Z,15.90
2022-12-19T10:55:41.201Z,13.73
2022-12-19T10:58:21.768Z,15.55
2022-12-19T11:01:29.221Z,18.50
2022-12-19T11:04:35.543Z,12.65
2022-12-19T11:12:19.922Z,13.05
2022-12-19T11:21:56.584Z,11.15
2022-12-19T11:30:05.777Z,11.98
2022-12-19T11:30:46.430Z,6.57
2022-12-19T11:34:35.841Z,6.00
2022-12-19T11:37:46.730Z,5.63
2022-12-19T11:40:49.861Z,11.50
2022-12-19T11:43:46.652Z,8.38
2022-12-19T11:46:48.187Z,8.07
2022-12-19T11:49:49.132Z,10.20
2022-12-19T11:56:20.256Z,13.20
2022-12-19T11:58:53.535Z,16.75
2022-12-19T12:01:55.395Z,14.98
2022-12-19T12:05:08.723Z,16.77
2022-12-19T12:08:49.384Z,12.57
2022-12-19T12:13:55.267Z,12.25
2022-12-19T12:25:33.996Z,21.25
2022-12-19T12:31:04.170Z,15.60
2022-12-19T12:31:08.449Z,11.13
2022-12-19T12:31:18.626Z,14.63
2022-12-19T12:31:42.137Z,12.90
2022-12-19T12:31:43.907Z,19.25
2022-12-19T12:35:56.940Z,15.23
2022-12-19T12:40:23.745Z,18.75
2022-12-19T12:43:08.694Z,15.30
2022-12-19T12:45:45.033Z,12.82
2022-12-19T12:48:58.507Z,29.33
2022-12-19T12:51:39.580Z,14.13
2022-12-19T12:54:26.479Z,17.17
2022-12-19T12:57:02.456Z,12.88
2022-12-19T12:59:39.120Z,16.83
2022-12-19T13:02:24.917Z,17.27
2022-12-19T13:05:01.243Z,22.60
2022-12-19T13:07:45.393Z,19.23
2022-12-19T13:10:16.100Z,15.85
2022-12-19T13:13:26.198Z,11.73
2022-12-19T13:16:00.397Z,17.65
2022-12-19T13:18:34.375Z,12.10
2022-12-19T13:21:10.554Z,11.23
2022-12-19T13:23:45.853Z,17.52
2022-12-19T13:26:44.019Z,18.00
2022-12-19T13:29:34.255Z,15.50
2022-12-19T13:32:15.967Z,11.38
2022-12-19T13:35:12.752Z,13.48
2022-12-19T13:40:01.200Z,19.35
2022-12-19T13:41:23.808Z,9.05
2022-12-19T13:43:56.651Z,18.70
2022-12-19T13:46:35.011Z,14.02
2022-12-19T13:49:09.791Z,22.92
2022-12-19T13:51:57.101Z,17.33
2022-12-19T13:54:38.162Z,10.45
2022-12-19T13:57:32.231Z,11.52
2022-12-19T14:00:21.081Z,15.32
2022-12-19T14:03:11.883Z,17.55
2022-12-19T14:06:17.386Z,16.42
2022-12-19T14:08:34.151Z,18.65
2022-12-19T14:11:45.810Z,16.58
2022-12-19T14:14:27.284Z,21.45
2022-12-19T14:17:05.334Z,11.33
2022-12-19T14:19:40.520Z,9.90
2022-12-19T14:23:15.028Z,17.52
2022-12-19T14:28:21.948Z,15.57
2022-12-19T14:30:27.277Z,16.30
2022-12-19T14:33:47.187Z,12.70
2022-12-19T14:36:21.405Z,17.05
2022-12-19T14:39:23.670Z,14.80
2022-12-19T14:42:07.273Z,13.95
2022-12-19T14:52:51.478Z,14.68
2022-12-19T14:54:10.514Z,14.05
2022-12-19T14:54:33.979Z,15.23
2022-12-19T14:56:54.188Z,13.20
2022-12-19T14:59:06.413Z,16.65
2022-12-19T15:01:36.605Z,19.65
2022-12-19T15:04:50.342Z,9.27
2022-12-19T15:07:22.067Z,18.35
2022-12-19T15:11:08.833Z,15.70
2022-12-19T15:14:54.922Z,16.83
2022-12-19T15:16:30.789Z,18.45
2022-12-19T15:19:01.783Z,10.75
2022-12-19T15:21:31.600Z,7.72
2022-12-19T15:24:03.053Z,21.23
2022-12-19T15:26:35.273Z,22.00
2022-12-19T15:29:14.165Z,12.07
2022-12-19T15:31:48.437Z,13.38
2022-12-19T15:37:18.874Z,14.52
2022-12-19T15:39:46.614Z,10.88
2022-12-19T15:42:27.946Z,13.43
2022-12-19T15:45:38.419Z,7.82
2022-12-19T15:48:38.417Z,15.02
2022-12-19T15:51:21.391Z,12.93
2022-12-19T15:54:15.566Z,12.07
2022-12-19T15:56:52.202Z,16.92
2022-12-19T15:59:38.814Z,14.85
2022-12-19T16:03:20.581Z,11.18
2022-12-19T16:05:56.845Z,11.70
2022-12-19T16:08:38.247Z,17.92
2022-12-19T16:11:38.201Z,13.07
2022-12-19T16:14:12.484Z,16.65
2022-12-19T16:16:41.327Z,18.80
2022-12-19T16:19:38.948Z,23.27
2022-12-19T16:22:45.203Z,15.43
2022-12-19T16:25:25.173Z,20.85
2022-12-19T16:28:03.599Z,18.50
2022-12-19T16:30:35.807Z,17.92
2022-12-19T16:33:03.821Z,18.08
2022-12-19T16:36:03.191Z,17.65
2022-12-19T16:38:36.457Z,18.10
2022-12-19T16:41:04.573Z,19.60
2022-12-19T16:43:43.724Z,20.38
2022-12-19T16:46:18.353Z,19.45
2022-12-19T16:48:50.676Z,18.17
2022-12-19T16:51:38.976Z,24.58
2022-12-19T16:54:06.825Z,25.67
2022-12-19T16:56:43.756Z,30.38
2022-12-19T16:59:29.801Z,29.70
2022-12-19T17:02:01.635Z,24.77
2022-12-19T17:04:42.016Z,21.88
2022-12-19T17:07:12.050Z,23.30
2022-12-19T17:09:47.665Z,26.00
2022-12-19T17:12:19.216Z,28.50
2022-12-19T17:15:04.140Z,22.77
2022-12-19T17:18:35.488Z,26.35
2022-12-19T17:21:15.447Z,27.00
2022-12-19T17:23:47.710Z,26.90
2022-12-19T17:26:25.767Z,18.92
2022-12-19T17:28:57.232Z,17.15
2022-12-19T17:31:39.989Z,29.17
2022-12-19T17:34:41.369Z,26.38
2022-12-19T17:37:22.076Z,27.27
2022-12-19T17:42:45.133Z,23.15
2022-12-19T17:45:29.854Z,24.92
2022-12-19T17:48:12.382Z,15.63
2022-12-19T17:50:56.395Z,24.50
2022-12-19T17:53:24.820Z,18.83
2022-12-19T17:56:07.214Z,21.13
2022-12-19T17:58:59.867Z,23.95
2022-12-19T18:01:37.114Z,23.65
2022-12-19T18:04:09.755Z,23.95
2022-12-19T18:06:38.475Z,22.63
2022-12-19T18:09:11.069Z,21.95
2022-12-19T18:11:51.019Z,18.38
2022-12-19T18:14:28.334Z,24.33
2022-12-19T18:17:20.777Z,21.27
2022-12-19T18:20:04.907Z,33.78
2022-12-19T18:22:49.160Z,25.77
2022-12-19T18:25:28.384Z,24.42
2022-12-19T18:27:56.547Z,23.42
2022-12-19T18:30:25.866Z,24.77
2022-12-19T18:33:03.635Z,35.90
2022-12-19T18:35:40.751Z,24.20
2022-12-19T18:38:13.307Z,23.33
2022-12-19T18:40:47.139Z,18.13
2022-12-19T18:43:16.729Z,20.65
2022-12-19T18:45:51.039Z,23.10
2022-12-19T18:48:21.593Z,21.17
2022-12-19T18:53:22.238Z,26.95
2022-12-19T18:55:51.450Z,24.02
2022-12-19T18:58:20.829Z,21.50
2022-12-19T19:00:50.177Z,31.42
2022-12-19T19:03:23.148Z,27.88
2022-12-19T19:05:51.221Z,28.40
2022-12-19T19:08:38.427Z,31.70
2022-12-19T19:11:30.040Z,35.27
2022-12-19T19:13:57.866Z,21.33
2022-12-19T19:16:27.207Z,26.67
2022-12-19T19:18:57.386Z,25.25
2022-12-19T19:21:38.063Z,34.17
2022-12-19T19:24:21.076Z,27.55
2022-12-19T19:26:49.927Z,17.80
2022-12-19T19:29:19.804Z,16.67
2022-12-19T19:31:50.695Z,21.35
2022-12-19T19:34:27.206Z,18.08
2022-12-19T19:36:59.877Z,32.28
2022-12-19T19:39:48.900Z,19.85
2022-12-19T19:42:18.964Z,23.20
2022-12-19T19:45:07.294Z,22.90
2022-12-19T19:47:38.487Z,27.20
2022-12-19T19:50:12.252Z,26.33
2022-12-19T19:52:42.748Z,25.90
2022-12-19T19:55:11.229Z,19.45
2022-12-19T19:57:39.201Z,25.58
2022-12-19T20:00:09.169Z,21.33
2022-12-19T20:02:43.286Z,19.98
2022-12-19T20:05:11.880Z,20.05
2022-12-19T20:07:39.586Z,25.58
2022-12-19T20:10:08.896Z,21.67
2022-12-19T20:12:36.877Z,22.02
2022-12-19T20:15:05.282Z,18.02
2022-12-19T20:17:33.412Z,24.70
2022-12-19T20:20:01.311Z,28.38
2022-12-19T20:23:30.965Z,23.95
2022-12-19T20:26:05.487Z,28.63
2022-12-19T20:28:34.181Z,17.48
2022-12-19T20:31:02.576Z,24.75
2022-12-19T20:33:30.530Z,19.88
2022-12-19T20:36:04.740Z,26.70
2022-12-19T20:38:32.445Z,20.75
2022-12-19T20:41:00.353Z,21.35
2022-12-19T20:43:28.259Z,20.42
2022-12-19T20:46:08.704Z,22.02
2022-12-19T20:51:06.120Z,23.23
2022-12-19T20:53:35.795Z,26.95
2022-12-19T20:56:05.752Z,24.15
2022-12-19T20:58:36.144Z,23.98
2022-12-19T21:01:18.372Z,20.88
2022-12-19T21:03:48.082Z,23.60
2022-12-19T21:06:18.781Z,19.10
2022-12-19T21:08:47.299Z,21.77
2022-12-19T21:11:16.005Z,15.95
2022-12-19T21:13:44.157Z,14.68
2022-12-19T21:16:14.550Z,24.80
2022-12-19T21:18:45.665Z,26.60
2022-12-19T21:21:20.639Z,22.55
2022-12-19T21:23:49.176Z,25.85
2022-12-19T21:28:47.165Z,20.42
2022-12-19T21:31:25.291Z,19.40
2022-12-19T21:34:13.206Z,15.13
2022-12-19T21:36:44.470Z,23.48
2022-12-19T21:39:15.246Z,20.98
2022-12-19T21:41:52.809Z,21.40
2022-12-19T21:44:25.857Z,14.10
2022-12-19T21:47:04.712Z,20.25
2022-12-19T21:49:48.830Z,21.70
2022-12-19T21:52:19.273Z,17.67
2022-12-19T21:55:13.621Z,17.52
2022-12-19T21:58:04.861Z,16.67
2022-12-19T22:00:39.025Z,21.85
2022-12-19T22:03:51.804Z,20.55
2022-12-19T22:06:32.019Z,17.65
2022-12-19T22:09:00.681Z,20.77
2022-12-19T22:11:32.280Z,21.42
2022-12-19T22:14:02.689Z,12.02
2022-12-19T22:16:35.537Z,29.25
2022-12-19T22:19:07.499Z,17.05
2022-12-19T22:21:39.354Z,23.98
2022-12-19T22:24:07.460Z,18.98
2022-12-19T22:26:35.690Z,18.77
2022-12-19T22:29:07.510Z,19.67
2022-12-19T22:31:37.051Z,19.20
2022-12-19T22:34:10.461Z,24.08
2022-12-19T22:36:40.796Z,21.80
2022-12-19T22:39:11.825Z,16.73
2022-12-19T22:41:40.596Z,16.00
2022-12-19T22:44:14.924Z,14.23
2022-12-19T22:46:42.871Z,22.02
2022-12-19T22:49:12.556Z,14.80
2022-12-19T22:51:41.175Z,21.03
2022-12-19T22:54:12.402Z,21.85
2022-12-19T22:56:42.821Z,20.92
2022-12-19T22:59:11.789Z,19.92
2022-12-19T23:01:43.781Z,22.40
2022-12-19T23:04:14.235Z,17.88
2022-12-19T23:06:42.381Z,21.65
2022-12-19T23:09:13.838Z,17.65
2022-12-19T23:11:46.044Z,16.25
2022-12-19T23:14:16.469Z,15.75
2022-12-19T23:16:45.206Z,17.95
2022-12-19T23:19:15.173Z,11.25
2022-12-19T23:21:42.896Z,14.63
2022-12-19T23:24:11.860Z,13.40
2022-12-19T23:26:39.724Z,14.90
2022-12-19T23:29:16.559Z,18.90
2022-12-19T23:31:46.305Z,21.08
2022-12-19T23:34:15.930Z,15.77
2022-12-19T23:39:31.517Z,18.25
2022-12-19T23:41:59.265Z,19.73
2022-12-19T23:44:27.165Z,20.98
2022-12-19T23:47:02.367Z,16.48
2022-12-19T23:49:32.324Z,15.77
2022-12-19T23:52:00.134Z,18.98
2022-12-19T23:54:28.137Z,11.57
2022-12-19T23:56:55.688Z,27.50
2022-12-19T23:59:23.355Z,14.65
